Aviation Digital Data Service (ADDS)

Output produced by METARs form (1115 UTC 22 November 2017)
found at http://aviationweather.gov/adds/metars/
 
KBOS 220914Z 2209/2312 18007KT P6SM VCSH BKN150 
     FM221100 19006KT 6SM -RA BR OVC050 
     FM221300 19006KT 4SM -RA BR BKN025 OVC035 
     FM221500 19004KT 2SM RA BR OVC008 
     FM221900 31010G17KT 4SM -RA BR BKN008 
     FM222200 33012G24KT P6SM SCT025 
     FM230900 31010G20KT P6SM SKC